Time;durP1;ratioP1;P1;durP2;ratioP2;P2;SDS_P1;SDS_P2;PMS_P1;PMS_P2;Temp;Humidity;BMP_temperature;BMP_pressure;BME280_temperature;BME280_humidity;BME280_pressure;Samples;Min_cycle;Max_cycle;Signal;HPM_P1;HPM_P2
2022/07/30 00:00:05;;;;;;;12.45;5.90;;;16.30;99.90;;;;;;4976629;28;20123;-70
2022/07/30 00:02:30;;;;;;;14.10;5.50;;;16.20;99.90;;;;;;4976574;28;20029;-69
2022/07/30 00:04:56;;;;;;;12.10;5.88;;;16.20;99.90;;;;;;4974276;28;20023;-68
2022/07/30 00:07:22;;;;;;;10.45;5.57;;;16.20;99.90;;;;;;4975988;28;20057;-70
2022/07/30 00:09:47;;;;;;;12.90;5.70;;;16.20;99.90;;;;;;4976438;28;20373;-69
2022/07/30 00:12:13;;;;;;;12.00;5.95;;;16.20;99.90;;;;;;4976718;28;20465;-68
2022/07/30 00:14:39;;;;;;;16.92;9.20;;;16.10;99.90;;;;;;4976518;28;20082;-67
2022/07/30 00:17:05;;;;;;;16.80;7.32;;;16.10;99.90;;;;;;4976386;28;20126;-71
2022/07/30 00:19:30;;;;;;;11.88;6.13;;;16.10;99.90;;;;;;4976357;28;20022;-68
2022/07/30 00:21:56;;;;;;;14.48;5.63;;;16.00;99.90;;;;;;4976281;28;20089;-67
2022/07/30 00:24:22;;;;;;;20.63;6.53;;;16.00;99.90;;;;;;4976179;28;20019;-68
2022/07/30 00:26:48;;;;;;;14.68;6.53;;;15.90;99.90;;;;;;4975857;28;20043;-68
2022/07/30 00:29:13;;;;;;;16.15;6.60;;;15.90;99.90;;;;;;4976286;28;20077;-67
2022/07/30 00:31:39;;;;;;;15.05;6.25;;;15.90;99.90;;;;;;4976030;28;20063;-68
2022/07/30 00:34:05;;;;;;;15.07;6.07;;;15.90;99.90;;;;;;4974706;28;20073;-72
2022/07/30 00:36:31;;;;;;;12.45;5.30;;;15.80;99.90;;;;;;4975772;28;20025;-68
2022/07/30 00:38:56;;;;;;;11.80;5.50;;;15.80;99.90;;;;;;4974431;28;20023;-69
2022/07/30 00:41:22;;;;;;;12.32;5.65;;;15.80;99.90;;;;;;4975981;28;20031;-72
2022/07/30 00:43:48;;;;;;;13.98;5.35;;;15.80;99.90;;;;;;4975613;28;20066;-69
2022/07/30 00:46:13;;;;;;;11.63;5.57;;;15.70;99.90;;;;;;4975562;28;20027;-68
2022/07/30 00:48:40;;;;;;;14.95;6.13;;;15.70;99.90;;;;;;4975808;28;20054;-69
2022/07/30 00:51:05;;;;;;;17.05;7.38;;;15.70;99.90;;;;;;4975845;28;20027;-68
2022/07/30 00:53:32;;;;;;;22.63;10.05;;;15.70;99.90;;;;;;4974492;28;20469;-68
2022/07/30 00:55:57;;;;;;;23.42;14.27;;;15.60;99.90;;;;;;4974205;28;20038;-68
2022/07/30 00:58:23;;;;;;;22.40;12.50;;;15.60;99.90;;;;;;4975705;28;20028;-68
2022/07/30 01:00:48;;;;;;;16.63;7.35;;;15.60;99.90;;;;;;4975559;28;20031;-68
2022/07/30 01:03:14;;;;;;;12.82;7.53;;;15.50;99.90;;;;;;4975637;28;20397;-69
2022/07/30 01:05:39;;;;;;;15.27;8.07;;;15.50;99.90;;;;;;4975499;28;20388;-70
2022/07/30 01:08:05;;;;;;;17.00;9.05;;;15.50;99.90;;;;;;4974999;28;20112;-71
2022/07/30 01:10:31;;;;;;;17.00;7.55;;;15.40;99.90;;;;;;4974896;28;20026;-71
2022/07/30 01:12:58;;;;;;;16.88;6.80;;;15.40;99.90;;;;;;4975198;28;20050;-68
2022/07/30 01:15:24;;;;;;;13.65;6.90;;;15.40;99.90;;;;;;4975238;28;20023;-67
2022/07/30 01:17:52;;;;;;;11.48;5.90;;;15.30;99.90;;;;;;4974797;28;20042;-68
2022/07/30 01:20:24;;;;;;;11.93;5.78;;;15.30;99.90;;;;;;4974800;28;20715;-70
2022/07/30 01:23:13;;;;;;;15.23;6.53;;;15.30;99.90;;;;;;4975185;28;20060;-72
2022/07/30 01:26:00;;;;;;;12.38;6.13;;;15.30;99.90;;;;;;4973444;28;20044;-68
2022/07/30 01:28:31;;;;;;;16.90;6.70;;;15.20;99.90;;;;;;4974834;28;20035;-72
2022/07/30 01:30:58;;;;;;;15.82;7.50;;;15.20;99.90;;;;;;4974723;28;20018;-69
2022/07/30 01:33:25;;;;;;;15.20;6.07;;;15.20;99.90;;;;;;4974419;28;20377;-67
2022/07/30 01:35:52;;;;;;;12.98;6.18;;;15.20;99.90;;;;;;4974502;28;20429;-67
2022/07/30 01:38:21;;;;;;;14.32;6.97;;;15.20;99.90;;;;;;4974208;28;20381;-71
2022/07/30 01:40:49;;;;;;;11.27;5.93;;;15.20;99.90;;;;;;4974579;28;20437;-68
2022/07/30 01:43:16;;;;;;;12.52;6.60;;;15.20;99.90;;;;;;4974472;28;20062;-67
2022/07/30 01:45:43;;;;;;;11.93;5.25;;;15.10;99.90;;;;;;4974150;28;20018;-68
2022/07/30 01:48:10;;;;;;;13.68;6.43;;;15.10;99.90;;;;;;4973917;28;20493;-68
2022/07/30 01:50:41;;;;;;;15.50;5.32;;;15.10;99.90;;;;;;4974489;28;20023;-70
2022/07/30 01:53:07;;;;;;;12.27;5.40;;;15.10;99.90;;;;;;4973865;28;20019;-71
2022/07/30 01:55:35;;;;;;;10.15;6.05;;;15.10;99.90;;;;;;4974133;28;20033;-69
2022/07/30 01:58:02;;;;;;;10.93;5.03;;;15.10;99.90;;;;;;4974289;28;20026;-69
2022/07/30 02:00:31;;;;;;;14.38;5.88;;;15.10;99.90;;;;;;4974110;28;20038;-72
2022/07/30 02:02:57;;;;;;;13.20;5.60;;;15.10;99.90;;;;;;4974296;28;20465;-68
2022/07/30 02:05:23;;;;;;;16.50;6.38;;;15.20;99.90;;;;;;4974002;28;20022;-72
2022/07/30 02:08:01;;;;;;;16.88;7.28;;;15.10;99.90;;;;;;4974045;28;20038;-72
2022/07/30 02:10:34;;;;;;;12.38;5.57;;;15.10;99.90;;;;;;4972090;28;20109;-71
2022/07/30 02:13:03;;;;;;;16.25;6.40;;;15.20;99.90;;;;;;4974260;28;20046;-69
2022/07/30 02:15:40;;;;;;;16.90;5.55;;;15.10;99.90;;;;;;4974133;28;20067;-71
2022/07/30 02:18:39;;;;;;;11.25;5.22;;;15.10;99.90;;;;;;4974041;28;20022;-69
2022/07/30 02:21:07;;;;;;;15.45;6.07;;;15.10;99.90;;;;;;4972754;28;20045;-67
2022/07/30 02:23:39;;;;;;;14.90;6.18;;;15.10;99.90;;;;;;4973822;28;20053;-71
2022/07/30 02:26:07;;;;;;;;;;;15.10;99.90;;;;;;4974610;28;20109;-68
2022/07/30 02:28:37;;;;;;;14.02;5.88;;;15.10;99.90;;;;;;4973393;28;19917;-69
2022/07/30 02:31:06;;;;;;;10.18;5.22;;;15.00;99.90;;;;;;4973533;28;20049;-68
2022/07/30 02:33:36;;;;;;;12.43;5.38;;;15.00;99.90;;;;;;4973459;28;20364;-73
2022/07/30 02:36:04;;;;;;;14.30;6.88;;;15.00;99.90;;;;;;4972359;28;20368;-68
2022/07/30 02:38:30;;;;;;;16.63;6.50;;;15.00;99.90;;;;;;4972353;28;20027;-68
2022/07/30 02:40:58;;;;;;;15.77;6.68;;;15.00;99.90;;;;;;4973647;28;20019;-68
2022/07/30 02:43:25;;;;;;;16.50;5.68;;;15.00;99.90;;;;;;4974214;28;20022;-70
2022/07/30 02:45:52;;;;;;;13.07;5.88;;;15.00;99.90;;;;;;4973830;28;20026;-67
2022/07/30 02:48:20;;;;;;;11.07;5.60;;;15.00;99.90;;;;;;4971983;28;20114;-68
2022/07/30 02:50:49;;;;;;;12.52;6.30;;;14.90;99.90;;;;;;4973935;28;20077;-68
2022/07/30 02:53:17;;;;;;;14.73;5.65;;;14.90;99.90;;;;;;4973908;28;20365;-67
2022/07/30 02:55:44;;;;;;;14.23;6.40;;;14.90;99.90;;;;;;4972142;28;20031;-67
2022/07/30 02:58:11;;;;;;;12.75;5.13;;;14.90;99.90;;;;;;4971820;28;20073;-68
2022/07/30 03:00:38;;;;;;;18.90;8.75;;;14.90;99.90;;;;;;4973399;28;20023;-67
2022/07/30 03:03:06;;;;;;;14.00;5.72;;;14.80;99.90;;;;;;4973413;28;20015;-69
2022/07/30 03:05:32;;;;;;;14.27;6.93;;;14.80;99.90;;;;;;4973312;28;20034;-67
2022/07/30 03:07:58;;;;;;;21.45;8.80;;;14.80;99.90;;;;;;4973601;28;20041;-71
2022/07/30 03:10:25;;;;;;;19.33;7.82;;;14.80;99.90;;;;;;4973385;28;20015;-69
2022/07/30 03:12:52;;;;;;;13.70;5.63;;;14.80;99.90;;;;;;4973287;28;20085;-67
2022/07/30 03:15:18;;;;;;;13.60;5.72;;;14.80;99.90;;;;;;4973278;28;20046;-67
2022/07/30 03:17:47;;;;;;;17.85;6.60;;;14.80;99.90;;;;;;4973219;28;20035;-67
2022/07/30 03:20:17;;;;;;;18.77;8.30;;;14.80;99.90;;;;;;4972947;28;20035;-67
2022/07/30 03:22:46;;;;;;;17.27;6.38;;;14.80;99.90;;;;;;4973031;28;20577;-72
2022/07/30 03:25:15;;;;;;;15.82;7.40;;;14.80;99.90;;;;;;4972744;28;20018;-67
2022/07/30 03:27:41;;;;;;;18.83;8.02;;;14.80;99.90;;;;;;4973243;28;20089;-67
2022/07/30 03:30:08;;;;;;;14.98;7.18;;;14.80;99.90;;;;;;4973362;28;20368;-69
2022/07/30 03:32:35;;;;;;;13.45;4.95;;;14.80;99.90;;;;;;4972962;28;20018;-68
2022/07/30 03:35:01;;;;;;;12.70;6.25;;;14.80;99.90;;;;;;4973140;28;20027;-68
2022/07/30 03:37:28;;;;;;;16.85;7.07;;;14.80;99.90;;;;;;4973237;28;20106;-71
2022/07/30 03:39:56;;;;;;;11.15;6.05;;;14.80;99.90;;;;;;4974653;28;20023;-67
2022/07/30 03:42:23;;;;;;;12.10;5.43;;;14.80;99.90;;;;;;4976716;28;20061;-73
2022/07/30 03:44:49;;;;;;;11.43;6.03;;;14.80;99.90;;;;;;4976881;28;20041;-68
2022/07/30 03:47:16;;;;;;;15.40;5.93;;;14.90;99.90;;;;;;4976601;28;20042;-68
2022/07/30 03:49:41;;;;;;;16.20;6.63;;;14.90;99.90;;;;;;4976636;28;20031;-67
2022/07/30 03:52:08;;;;;;;20.05;7.22;;;14.90;99.90;;;;;;4975051;28;20118;-67
2022/07/30 03:54:34;;;;;;;14.82;5.68;;;14.90;99.90;;;;;;4975912;28;20399;-70
2022/07/30 03:57:01;;;;;;;12.80;5.78;;;14.90;99.90;;;;;;4976384;28;20038;-70
2022/07/30 03:59:27;;;;;;;17.30;7.05;;;14.90;99.90;;;;;;4975012;28;20365;-67
2022/07/30 04:01:53;;;;;;;13.02;4.82;;;14.90;99.90;;;;;;4976210;28;20031;-67
2022/07/30 04:04:19;;;;;;;14.80;6.85;;;14.90;99.90;;;;;;4974937;28;20022;-70
2022/07/30 04:06:44;;;;;;;15.05;6.63;;;14.90;99.90;;;;;;4976147;28;20023;-67
2022/07/30 04:09:11;;;;;;;13.82;6.15;;;15.00;99.90;;;;;;4976043;28;20462;-72
2022/07/30 04:11:38;;;;;;;10.27;5.65;;;15.00;99.90;;;;;;4974506;28;20549;-67
2022/07/30 04:14:03;;;;;;;12.63;4.75;;;15.00;99.90;;;;;;4975868;28;20051;-70
2022/07/30 04:16:52;;;;;;;13.73;6.75;;;15.00;99.90;;;;;;4975565;28;20168;-68
2022/07/30 04:19:28;;;;;;;13.73;5.30;;;15.10;99.90;;;;;;4976056;28;20475;-68
2022/07/30 04:21:56;;;;;;;13.73;5.05;;;15.10;99.90;;;;;;4975836;28;20030;-69
2022/07/30 04:24:24;;;;;;;13.63;6.15;;;15.10;99.90;;;;;;4976099;28;20026;-67
2022/07/30 04:26:51;;;;;;;14.55;6.00;;;15.20;99.90;;;;;;4975948;28;20053;-67
2022/07/30 04:29:18;;;;;;;13.25;4.90;;;15.20;99.90;;;;;;4974248;28;20118;-68
2022/07/30 04:31:44;;;;;;;14.85;4.90;;;15.30;99.90;;;;;;4975866;28;20041;-70
2022/07/30 04:34:14;;;;;;;12.50;4.95;;;15.30;99.90;;;;;;4975300;28;20046;-68
2022/07/30 04:36:40;;;;;;;9.95;4.90;;;15.40;99.90;;;;;;4975571;28;20563;-71
2022/07/30 04:39:05;;;;;;;9.68;4.68;;;15.50;99.90;;;;;;4975852;28;20110;-68
2022/07/30 04:41:31;;;;;;;15.13;5.57;;;15.60;99.90;;;;;;4975665;28;20132;-66
2022/07/30 04:43:57;;;;;;;9.82;4.60;;;15.70;99.90;;;;;;4975347;28;20440;-69
2022/07/30 04:46:22;;;;;;;14.05;4.68;;;15.80;99.90;;;;;;4975586;28;20093;-73
2022/07/30 04:48:48;;;;;;;11.82;5.55;;;15.80;99.90;;;;;;4975126;28;20054;-68
2022/07/30 04:51:25;;;;;;;9.25;4.40;;;15.90;99.90;;;;;;4974852;28;20023;-67
2022/07/30 04:53:53;;;;;;;7.55;4.18;;;15.90;99.90;;;;;;4974985;28;20019;-67
2022/07/30 04:56:20;;;;;;;13.25;4.72;;;16.00;99.90;;;;;;4975207;28;20031;-68
2022/07/30 04:58:46;;;;;;;12.55;4.13;;;16.10;99.90;;;;;;4975242;28;20056;-71
2022/07/30 05:01:17;;;;;;;11.07;3.90;;;16.10;99.90;;;;;;4975016;28;20019;-68
2022/07/30 05:03:45;;;;;;;9.07;3.97;;;16.20;99.90;;;;;;4975251;28;20058;-71
2022/07/30 05:06:11;;;;;;;9.05;4.22;;;16.20;99.90;;;;;;4975497;28;20030;-68
2022/07/30 05:08:38;;;;;;;8.50;3.72;;;16.30;99.90;;;;;;4975866;28;20445;-69
2022/07/30 05:11:04;;;;;;;9.68;3.80;;;16.30;99.90;;;;;;4975382;28;20376;-72
2022/07/30 05:13:29;;;;;;;8.73;4.28;;;16.40;99.90;;;;;;4975142;28;20026;-68
2022/07/30 05:15:55;;;;;;;9.75;3.63;;;16.50;99.90;;;;;;4974811;28;20061;-68
2022/07/30 05:18:20;;;;;;;7.32;3.55;;;16.60;99.90;;;;;;4975414;28;20034;-70
2022/07/30 05:20:46;;;;;;;6.18;3.20;;;16.60;99.90;;;;;;4975039;28;20089;-68
2022/07/30 05:23:12;;;;;;;11.73;3.10;;;16.70;99.90;;;;;;4975451;28;20026;-71
2022/07/30 05:25:37;;;;;;;7.03;3.05;;;16.80;99.90;;;;;;4975459;28;20023;-69
2022/07/30 05:28:03;;;;;;;7.10;3.30;;;16.90;99.90;;;;;;4975000;28;20073;-69
2022/07/30 05:30:29;;;;;;;8.23;3.25;;;16.90;99.90;;;;;;4973661;28;20018;-69
2022/07/30 05:32:54;;;;;;;6.95;3.33;;;17.00;99.90;;;;;;4974665;28;20118;-68
2022/07/30 05:35:20;;;;;;;8.18;3.22;;;17.10;99.90;;;;;;4974695;28;20453;-69
2022/07/30 05:37:45;;;;;;;6.70;2.83;;;17.20;99.90;;;;;;4975124;28;20030;-68
2022/07/30 05:40:11;;;;;;;7.38;3.10;;;17.30;99.90;;;;;;4975038;28;20035;-67
2022/07/30 05:42:36;;;;;;;5.95;3.35;;;17.40;99.90;;;;;;4974837;28;20023;-70
2022/07/30 05:45:02;;;;;;;8.20;3.20;;;17.50;99.90;;;;;;4974473;28;20027;-67
2022/07/30 05:47:28;;;;;;;6.72;3.00;;;17.70;99.90;;;;;;4974391;28;20053;-68
2022/07/30 05:49:53;;;;;;;5.57;2.35;;;17.90;99.90;;;;;;4974273;28;20029;-69
2022/07/30 05:52:19;;;;;;;7.65;2.70;;;18.10;99.90;;;;;;4974528;28;20037;-68
2022/07/30 05:54:44;;;;;;;6.10;2.90;;;18.40;99.90;;;;;;4974210;28;20022;-68
2022/07/30 05:57:10;;;;;;;6.82;2.83;;;18.50;99.90;;;;;;4974068;28;20035;-67
2022/07/30 05:59:36;;;;;;;8.23;2.75;;;18.70;99.90;;;;;;4973968;28;20077;-71
2022/07/30 06:02:02;;;;;;;6.93;2.15;;;18.80;99.90;;;;;;4974316;28;20139;-71
2022/07/30 06:04:28;;;;;;;3.40;1.80;;;19.00;99.90;;;;;;4973582;28;20078;-67
2022/07/30 06:06:54;;;;;;;7.07;2.22;;;19.20;99.90;;;;;;4974257;28;20106;-68
2022/07/30 06:09:20;;;;;;;3.58;1.77;;;19.60;99.90;;;;;;4974439;28;20110;-67
2022/07/30 06:11:45;;;;;;;4.90;2.28;;;20.20;99.90;;;;;;4974228;28;20054;-68
2022/07/30 06:14:11;;;;;;;4.25;1.77;;;20.90;99.90;;;;;;4973887;28;20030;-68
2022/07/30 06:16:37;;;;;;;5.65;2.03;;;21.70;99.90;;;;;;4974158;28;20046;-67
2022/07/30 06:19:02;;;;;;;4.28;1.83;;;22.50;99.90;;;;;;4974099;28;20030;-73
2022/07/30 06:21:28;;;;;;;4.05;1.90;;;23.40;99.90;;;;;;4974583;28;20077;-67
2022/07/30 06:23:54;;;;;;;9.85;3.03;;;24.20;98.30;;;;;;4972674;28;20764;-68
2022/07/30 06:26:19;;;;;;;7.60;2.65;;;24.90;96.70;;;;;;4974062;28;20089;-67
2022/07/30 06:28:45;;;;;;;6.32;2.00;;;25.50;95.30;;;;;;4973826;28;20042;-71
2022/07/30 06:31:11;;;;;;;5.07;1.75;;;26.00;94.10;;;;;;4974293;28;20035;-67
2022/07/30 06:33:37;;;;;;;4.05;1.98;;;26.60;92.80;;;;;;4974164;28;20464;-71
2022/07/30 06:36:03;;;;;;;4.75;2.05;;;26.90;91.30;;;;;;4973898;28;20052;-68
2022/07/30 06:38:29;;;;;;;6.55;1.50;;;27.10;91.00;;;;;;4973750;28;20027;-71
2022/07/30 06:40:55;;;;;;;4.53;1.33;;;27.50;90.80;;;;;;4974009;28;20465;-67
2022/07/30 06:43:20;;;;;;;6.53;2.03;;;28.00;90.10;;;;;;4973575;28;20063;-67
2022/07/30 06:45:46;;;;;;;4.30;1.80;;;28.10;88.40;;;;;;4973782;28;20461;-71
2022/07/30 06:48:12;;;;;;;3.70;1.50;;;28.20;88.20;;;;;;4973149;28;20058;-68
2022/07/30 06:50:37;;;;;;;4.13;1.77;;;28.60;86.40;;;;;;4973406;28;20105;-68
2022/07/30 06:53:03;;;;;;;5.38;2.25;;;29.00;86.10;;;;;;4972361;28;20409;-72
2022/07/30 06:55:29;;;;;;;3.45;1.45;;;29.50;84.50;;;;;;4973651;28;20027;-69
2022/07/30 06:57:54;;;;;;;5.85;1.90;;;29.60;82.50;;;;;;4973603;28;20019;-69
2022/07/30 07:00:20;;;;;;;5.45;1.70;;;29.70;81.10;;;;;;4973400;28;20089;-69
2022/07/30 07:02:45;;;;;;;3.33;1.92;;;29.90;81.00;;;;;;4973756;28;20026;-70
2022/07/30 07:05:11;;;;;;;3.97;1.63;;;30.30;80.10;;;;;;4973717;28;20031;-71
2022/07/30 07:07:39;;;;;;;4.28;1.13;;;30.70;79.00;;;;;;4973277;28;20066;-67
2022/07/30 07:10:05;;;;;;;8.48;3.35;;;31.10;78.30;;;;;;4973536;28;20026;-67
2022/07/30 07:12:30;;;;;;;4.07;1.30;;;31.40;77.80;;;;;;4973511;28;20077;-67
2022/07/30 07:14:56;;;;;;;5.30;1.35;;;31.80;75.60;;;;;;4974907;28;20027;-70
2022/07/30 07:17:21;;;;;;;3.58;1.80;;;31.80;75.10;;;;;;4977344;28;20027;-69
2022/07/30 07:19:47;;;;;;;4.07;1.60;;;31.80;74.80;;;;;;4977055;28;20065;-68
2022/07/30 07:22:12;;;;;;;4.95;1.92;;;31.80;74.60;;;;;;4977315;28;20035;-67
2022/07/30 07:24:38;;;;;;;2.88;1.25;;;31.70;74.60;;;;;;4977403;28;20027;-66
2022/07/30 07:27:03;;;;;;;7.18;1.85;;;31.60;74.80;;;;;;4975659;28;20491;-67
2022/07/30 07:29:29;;;;;;;7.13;2.55;;;31.60;74.90;;;;;;4976880;28;20027;-70
2022/07/30 07:31:54;;;;;;;4.55;2.30;;;31.40;74.80;;;;;;4977145;28;20618;-68
2022/07/30 07:34:20;;;;;;;5.18;1.60;;;30.90;74.90;;;;;;4977038;28;20033;-71
2022/07/30 07:36:46;;;;;;;4.70;1.80;;;30.30;76.20;;;;;;4976671;28;20030;-69
2022/07/30 07:39:11;;;;;;;5.30;2.08;;;29.70;77.70;;;;;;4977078;28;20118;-71
2022/07/30 07:41:37;;;;;;;4.55;2.13;;;29.20;78.30;;;;;;4975362;28;20058;-68
2022/07/30 07:44:04;;;;;;;5.45;1.70;;;28.70;79.30;;;;;;4976337;28;20054;-69
2022/07/30 07:46:30;;;;;;;3.17;1.70;;;28.10;80.40;;;;;;4976732;28;20031;-67
2022/07/30 07:48:55;;;;;;;5.00;1.80;;;27.60;82.10;;;;;;4975256;28;20437;-68
2022/07/30 07:51:21;;;;;;;7.25;2.05;;;27.20;83.30;;;;;;4976866;28;20031;-68
2022/07/30 07:53:46;;;;;;;3.65;1.30;;;26.70;83.40;;;;;;4976896;28;20073;-68
2022/07/30 07:56:12;;;;;;;3.53;1.75;;;26.20;84.70;;;;;;4976426;28;20062;-68
2022/07/30 07:58:38;;;;;;;5.32;1.83;;;25.90;86.60;;;;;;4973572;28;20023;-70
2022/07/30 08:01:04;;;;;;;4.90;2.05;;;25.70;87.80;;;;;;4975107;28;20065;-68
2022/07/30 08:03:30;;;;;;;5.28;1.55;;;25.70;88.20;;;;;;4976781;28;20372;-71
2022/07/30 08:05:55;;;;;;;2.80;1.55;;;25.80;88.80;;;;;;4976256;28;20027;-71
2022/07/30 08:08:21;;;;;;;4.15;1.30;;;26.20;86.40;;;;;;4974309;28;20388;-68
2022/07/30 08:10:47;;;;;;;3.92;1.23;;;26.50;84.90;;;;;;4974614;28;20029;-69
2022/07/30 08:13:14;;;;;;;3.45;1.50;;;26.80;83.40;;;;;;4976098;28;20022;-69
2022/07/30 08:15:40;;;;;;;2.88;1.30;;;27.20;82.70;;;;;;4975780;28;20469;-69
2022/07/30 08:18:06;;;;;;;2.47;1.20;;;27.60;82.00;;;;;;4975688;28;20062;-67
2022/07/30 08:20:34;;;;;;;3.75;1.52;;;28.30;81.20;;;;;;4973115;28;20015;-66
2022/07/30 08:23:00;;;;;;;5.88;1.35;;;29.20;79.70;;;;;;4976033;28;20023;-67
2022/07/30 08:25:26;;;;;;;5.22;1.27;;;30.20;77.30;;;;;;4975651;28;20030;-67
2022/07/30 08:27:52;;;;;;;3.85;1.30;;;31.30;74.60;;;;;;4975116;28;20465;-67
2022/07/30 08:30:18;;;;;;;2.15;0.95;;;32.20;71.90;;;;;;4974709;28;20029;-72
2022/07/30 08:32:44;;;;;;;2.42;1.20;;;32.90;69.80;;;;;;4975630;28;20023;-68
2022/07/30 08:35:09;;;;;;;2.30;0.90;;;33.70;68.50;;;;;;4975751;28;20480;-68
2022/07/30 08:37:36;;;;;;;3.17;1.10;;;34.20;67.20;;;;;;4975791;28;20457;-67
2022/07/30 08:40:04;;;;;;;1.35;0.70;;;34.70;65.90;;;;;;4975459;28;20027;-70
2022/07/30 08:42:32;;;;;;;4.53;1.25;;;35.00;64.90;;;;;;4975877;28;20461;-67
2022/07/30 08:44:58;;;;;;;3.20;0.93;;;35.50;64.10;;;;;;4975704;28;20019;-68
2022/07/30 08:47:30;;;;;;;2.97;1.13;;;36.00;63.30;;;;;;4975183;28;20047;-70
2022/07/30 08:50:00;;;;;;;2.78;0.85;;;36.50;62.10;;;;;;4975534;28;20185;-67
2022/07/30 08:52:26;;;;;;;1.85;1.02;;;36.70;61.90;;;;;;4975399;28;20097;-67
2022/07/30 08:54:52;;;;;;;3.40;1.02;;;36.80;61.00;;;;;;4975328;28;20457;-67
2022/07/30 08:57:18;;;;;;;4.20;1.10;;;37.10;60.80;;;;;;4975562;28;20031;-68
2022/07/30 08:59:44;;;;;;;2.88;0.95;;;37.30;59.70;;;;;;4975232;28;20134;-67
2022/07/30 09:02:10;;;;;;;1.52;1.08;;;37.60;59.30;;;;;;4974849;28;20063;-67
2022/07/30 09:04:36;;;;;;;3.00;1.00;;;37.90;58.10;;;;;;4975570;28;20516;-67
2022/07/30 09:07:01;;;;;;;1.80;0.88;;;38.40;57.40;;;;;;4975185;28;20029;-68
2022/07/30 09:09:27;;;;;;;2.55;1.35;;;38.80;57.20;;;;;;4975492;28;20053;-70
2022/07/30 09:11:52;;;;;;;2.65;0.95;;;39.30;56.30;;;;;;4974898;28;20045;-69
2022/07/30 09:14:18;;;;;;;4.00;1.00;;;39.50;54.30;;;;;;4974765;28;20019;-68
2022/07/30 09:16:44;;;;;;;2.72;0.95;;;39.70;53.60;;;;;;4975180;28;20023;-68
2022/07/30 09:19:13;;;;;;;2.47;0.80;;;39.90;53.20;;;;;;4974778;28;20461;-68
2022/07/30 09:21:38;;;;;;;1.55;0.80;;;39.80;52.80;;;;;;4972542;28;20023;-70
2022/07/30 09:24:09;;;;;;;2.53;0.90;;;39.80;53.00;;;;;;4974755;28;20513;-70
2022/07/30 09:26:57;;;;;;;;;;;39.90;53.10;;;;;;4975399;28;20018;-71
2022/07/30 09:29:28;;;;;;;2.65;1.20;;;40.20;52.70;;;;;;4974842;28;19988;-68
2022/07/30 09:31:59;;;;;;;2.00;0.80;;;40.70;51.50;;;;;;4974617;28;20022;-68
2022/07/30 09:34:26;;;;;;;;;;;40.90;51.00;;;;;;4975234;28;20022;-72
2022/07/30 09:36:52;;;;;;;1.50;0.80;;;40.90;50.30;;;;;;4974489;28;19972;-67
2022/07/30 09:39:30;;;;;;;1.80;1.15;;;41.00;50.30;;;;;;4974740;28;20397;-68
2022/07/30 09:41:57;;;;;;;2.33;0.93;;;41.20;50.50;;;;;;4974693;28;20034;-68
2022/07/30 09:44:24;;;;;;;2.22;0.90;;;41.20;48.80;;;;;;4974450;28;20031;-66
2022/07/30 09:46:50;;;;;;;2.80;0.90;;;41.10;49.10;;;;;;4974180;28;20015;-67
2022/07/30 09:49:18;;;;;;;2.35;0.70;;;41.00;48.90;;;;;;4974599;28;20030;-68
2022/07/30 09:51:44;;;;;;;3.22;1.00;;;41.00;48.90;;;;;;4974366;28;20023;-69
2022/07/30 09:54:10;;;;;;;3.13;0.90;;;41.00;49.60;;;;;;4972074;28;20042;-67
2022/07/30 09:56:35;;;;;;;2.83;0.98;;;40.90;49.30;;;;;;4969405;28;20453;-67
2022/07/30 09:59:01;;;;;;;3.20;0.90;;;41.00;50.00;;;;;;4971753;28;20426;-66
2022/07/30 10:01:29;;;;;;;1.27;0.70;;;41.10;49.80;;;;;;4973332;28;20501;-67
2022/07/30 10:03:55;;;;;;;2.15;1.00;;;40.90;49.20;;;;;;4972947;28;20408;-68
2022/07/30 10:06:34;;;;;;;3.30;1.30;;;40.90;49.10;;;;;;4972875;28;20401;-68
2022/07/30 10:09:00;;;;;;;7.22;1.25;;;41.10;48.20;;;;;;4972375;28;20038;-67
2022/07/30 10:11:28;;;;;;;2.78;1.23;;;41.10;48.60;;;;;;4972560;28;20031;-68
2022/07/30 10:13:58;;;;;;;3.55;1.02;;;41.20;48.70;;;;;;4971455;28;20029;-69
2022/07/30 10:16:27;;;;;;;1.10;0.95;;;41.70;48.20;;;;;;4973673;28;20137;-67
2022/07/30 10:18:55;;;;;;;3.15;1.10;;;41.90;48.40;;;;;;4973447;28;20102;-67
2022/07/30 10:21:20;;;;;;;2.85;0.90;;;41.90;47.60;;;;;;4969675;28;20018;-67
2022/07/30 10:23:46;;;;;;;2.60;1.05;;;41.60;47.90;;;;;;4972334;28;20105;-67
2022/07/30 10:26:12;;;;;;;3.33;1.05;;;41.50;48.30;;;;;;4972206;28;20508;-67
2022/07/30 10:28:40;;;;;;;2.15;0.88;;;41.30;48.00;;;;;;4973890;28;20037;-71
2022/07/30 10:31:06;;;;;;;2.80;1.20;;;41.10;48.60;;;;;;4974011;28;20069;-68
2022/07/30 10:33:34;;;;;;;2.05;1.42;;;40.80;48.60;;;;;;4973518;28;20030;-67
2022/07/30 10:36:00;;;;;;;4.90;1.50;;;40.40;49.60;;;;;;4973877;28;20080;-71
2022/07/30 10:38:32;;;;;;;2.00;1.40;;;39.80;49.30;;;;;;4973274;28;20105;-68
2022/07/30 10:41:16;;;;;;;4.30;1.40;;;39.20;50.10;;;;;;4973900;28;20034;-67
2022/07/30 10:44:10;;;;;;;2.00;1.00;;;38.50;50.40;;;;;;4974006;28;20465;-70
2022/07/30 10:47:02;;;;;;;1.67;0.90;;;37.90;50.60;;;;;;4973827;28;20461;-68
2022/07/30 10:49:28;;;;;;;2.85;1.15;;;37.50;51.30;;;;;;4972955;28;20038;-67
2022/07/30 10:51:54;;;;;;;2.05;0.95;;;37.40;53.10;;;;;;4972291;28;20158;-70
2022/07/30 10:54:40;;;;;;;2.92;0.80;;;37.30;52.40;;;;;;4972892;28;20046;-67
2022/07/30 10:57:14;;;;;;;1.63;1.10;;;37.40;52.00;;;;;;4972500;28;20019;-67
2022/07/30 10:59:56;;;;;;;3.90;1.33;;;37.60;51.90;;;;;;4971565;28;20038;-68
2022/07/30 11:02:22;;;;;;;5.15;1.52;;;37.80;51.80;;;;;;4971715;28;20023;-70
2022/07/30 11:04:49;;;;;;;5.68;1.30;;;37.80;51.80;;;;;;4972995;28;20023;-68
2022/07/30 11:07:20;;;;;;;3.70;1.17;;;38.30;51.20;;;;;;4968198;28;20034;-68
2022/07/30 11:09:46;;;;;;;3.50;1.23;;;38.40;51.40;;;;;;4971750;28;20029;-67
2022/07/30 11:12:12;;;;;;;4.10;1.08;;;37.90;51.20;;;;;;4973152;28;20039;-68
2022/07/30 11:14:47;;;;;;;3.13;1.13;;;37.40;51.70;;;;;;4973583;28;20030;-68
2022/07/30 11:17:17;;;;;;;4.53;1.13;;;36.80;52.10;;;;;;4972568;28;20054;-68
2022/07/30 11:20:12;;;;;;;2.95;1.30;;;36.30;52.60;;;;;;4970468;28;20033;-70
2022/07/30 11:22:39;;;;;;;6.15;1.38;;;35.70;52.60;;;;;;4971519;28;20369;-66
2022/07/30 11:25:26;;;;;;;4.50;1.50;;;34.90;53.40;;;;;;4972555;28;20015;-67
2022/07/30 11:27:52;;;;;;;3.45;1.20;;;34.50;54.00;;;;;;4971351;28;20531;-71
2022/07/30 11:30:21;;;;;;;5.97;1.30;;;34.00;54.60;;;;;;4972775;28;20041;-69
2022/07/30 11:32:51;;;;;;;4.38;1.13;;;33.60;54.50;;;;;;4972452;28;20039;-67
2022/07/30 11:35:20;;;;;;;3.80;1.17;;;33.20;55.10;;;;;;4970685;28;20040;-67
2022/07/30 11:38:14;;;;;;;3.60;1.20;;;32.90;55.70;;;;;;4971366;28;20058;-67
2022/07/30 11:40:46;;;;;;;5.90;1.38;;;32.60;56.10;;;;;;4970688;28;20019;-67
2022/07/30 11:43:24;;;;;;;;;;;32.30;56.70;;;;;;4973204;28;20027;-70
2022/07/30 11:46:22;;;;;;;7.68;3.63;;;32.20;57.20;;;;;;4972708;28;20040;-68
2022/07/30 11:48:57;;;;;;;6.40;2.67;;;32.10;57.30;;;;;;4972274;28;20133;-67
2022/07/30 11:51:23;;;;;;;4.85;1.52;;;32.00;57.70;;;;;;4972440;28;20023;-68
2022/07/30 11:54:02;;;;;;;4.97;2.33;;;31.80;57.30;;;;;;4972654;28;20054;-69
2022/07/30 11:56:28;;;;;;;2.40;1.50;;;31.50;57.70;;;;;;4973330;28;20150;-71
2022/07/30 11:59:06;;;;;;;7.40;1.45;;;31.30;58.30;;;;;;4973018;28;20122;-69
2022/07/30 12:01:33;;;;;;;5.47;2.15;;;31.10;58.60;;;;;;4973845;28;20111;-68
2022/07/30 12:04:04;;;;;;;4.57;1.90;;;31.00;58.90;;;;;;4965722;28;20035;-68
2022/07/30 12:06:30;;;;;;;3.85;1.60;;;30.80;59.10;;;;;;4957283;28;20054;-68
2022/07/30 12:08:57;;;;;;;4.80;2.03;;;30.60;59.80;;;;;;4973364;28;20023;-67
2022/07/30 12:11:24;;;;;;;5.72;2.80;;;30.40;60.50;;;;;;4976080;28;20023;-68
2022/07/30 12:13:58;;;;;;;5.00;2.22;;;30.10;60.90;;;;;;4976253;28;20018;-67
2022/07/30 12:16:25;;;;;;;5.95;2.00;;;29.90;61.30;;;;;;4976109;28;20019;-66
2022/07/30 12:18:50;;;;;;;6.05;2.53;;;29.80;61.40;;;;;;4975765;28;20094;-67
2022/07/30 12:21:17;;;;;;;5.72;1.40;;;29.90;61.10;;;;;;4976593;28;20463;-68
2022/07/30 12:23:54;;;;;;;7.55;3.05;;;30.00;61.40;;;;;;4976241;28;20018;-68
2022/07/30 12:26:23;;;;;;;4.05;1.55;;;30.30;61.10;;;;;;4976159;28;20422;-67
2022/07/30 12:28:49;;;;;;;3.15;1.48;;;30.60;60.60;;;;;;4975964;28;20038;-66
2022/07/30 12:31:15;;;;;;;8.52;2.33;;;31.00;59.60;;;;;;4975816;28;20027;-67
2022/07/30 12:33:41;;;;;;;4.28;1.30;;;31.50;59.60;;;;;;4975990;28;20023;-66
2022/07/30 12:36:08;;;;;;;6.13;1.65;;;32.00;59.70;;;;;;4974484;28;20027;-67
2022/07/30 12:38:51;;;;;;;5.32;1.90;;;32.60;59.10;;;;;;4965764;28;20053;-70
2022/07/30 12:41:17;;;;;;;3.17;1.42;;;32.90;58.70;;;;;;4959847;28;20035;-65
2022/07/30 12:43:42;;;;;;;5.50;1.70;;;33.00;58.10;;;;;;4956570;28;20030;-68
2022/07/30 12:46:08;;;;;;;4.00;1.58;;;33.00;58.80;;;;;;4956546;28;20143;-67